sensor_id;sensor_type;location;lat;lon;timestamp;temperature;humidity
827;DHT22;395;48.132;11.608;2023-01-28T00:01:11;3.00;1.00
827;DHT22;395;48.132;11.608;2023-01-28T00:03:37;3.00;1.00
827;DHT22;395;48.132;11.608;2023-01-28T00:06:11;3.00;1.00
827;DHT22;395;48.132;11.608;2023-01-28T00:08:37;3.00;1.00
827;DHT22;395;48.132;11.608;2023-01-28T00:11:05;2.90;1.00
827;DHT22;395;48.132;11.608;2023-01-28T00:13:31;3.00;1.00
827;DHT22;395;48.132;11.608;2023-01-28T00:15:59;2.90;1.00
827;DHT22;395;48.132;11.608;2023-01-28T00:18:27;3.00;1.00
827;DHT22;395;48.132;11.608;2023-01-28T00:21:07;2.90;1.00
827;DHT22;395;48.132;11.608;2023-01-28T00:23:35;2.90;1.00
827;DHT22;395;48.132;11.608;2023-01-28T00:26:12;3.00;1.00
827;DHT22;395;48.132;11.608;2023-01-28T00:28:39;3.00;1.00
827;DHT22;395;48.132;11.608;2023-01-28T00:31:11;3.00;1.00
827;DHT22;395;48.132;11.608;2023-01-28T00:33:37;3.00;1.00
827;DHT22;395;48.132;11.608;2023-01-28T00:36:03;3.10;1.00
827;DHT22;395;48.132;11.608;2023-01-28T00:38:31;3.00;1.00
827;DHT22;395;48.132;11.608;2023-01-28T00:41:07;3.00;1.00
827;DHT22;395;48.132;11.608;2023-01-28T00:43:34;3.10;1.00
827;DHT22;395;48.132;11.608;2023-01-28T00:45:59;3.00;1.00
827;DHT22;395;48.132;11.608;2023-01-28T00:48:25;3.00;1.00
827;DHT22;395;48.132;11.608;2023-01-28T00:50:51;3.00;1.00
827;DHT22;395;48.132;11.608;2023-01-28T00:53:16;3.00;1.00
827;DHT22;395;48.132;11.608;2023-01-28T00:55:42;3.00;1.00
827;DHT22;395;48.132;11.608;2023-01-28T00:58:07;3.00;1.00
827;DHT22;395;48.132;11.608;2023-01-28T01:00:33;3.00;1.00
827;DHT22;395;48.132;11.608;2023-01-28T01:02:59;3.00;1.00
827;DHT22;395;48.132;11.608;2023-01-28T01:05:25;3.00;1.00
827;DHT22;395;48.132;11.608;2023-01-28T01:07:50;2.90;1.00
827;DHT22;395;48.132;11.608;2023-01-28T01:10:18;3.00;1.00
827;DHT22;395;48.132;11.608;2023-01-28T01:12:48;2.90;1.00
827;DHT22;395;48.132;11.608;2023-01-28T01:15:15;2.90;1.00
827;DHT22;395;48.132;11.608;2023-01-28T01:17:43;3.10;1.00
827;DHT22;395;48.132;11.608;2023-01-28T01:20:21;2.90;1.00
827;DHT22;395;48.132;11.608;2023-01-28T01:22:47;3.00;1.00
827;DHT22;395;48.132;11.608;2023-01-28T01:25:14;2.90;1.00
827;DHT22;395;48.132;11.608;2023-01-28T01:27:41;3.00;1.00
827;DHT22;395;48.132;11.608;2023-01-28T01:30:07;2.90;1.00
827;DHT22;395;48.132;11.608;2023-01-28T01:32:34;2.90;1.00
827;DHT22;395;48.132;11.608;2023-01-28T01:35:00;2.90;1.00
827;DHT22;395;48.132;11.608;2023-01-28T01:37:26;2.90;1.00
827;DHT22;395;48.132;11.608;2023-01-28T01:39:52;2.90;1.00
827;DHT22;395;48.132;11.608;2023-01-28T01:42:18;2.90;1.00
827;DHT22;395;48.132;11.608;2023-01-28T01:48:00;2.90;1.00
827;DHT22;395;48.132;11.608;2023-01-28T01:52:59;2.90;1.00
827;DHT22;395;48.132;11.608;2023-01-28T01:55:30;2.90;1.10
827;DHT22;395;48.132;11.608;2023-01-28T01:57:57;2.90;1.00
827;DHT22;395;48.132;11.608;2023-01-28T02:00:25;2.90;1.20
827;DHT22;395;48.132;11.608;2023-01-28T02:02:51;2.80;1.00
827;DHT22;395;48.132;11.608;2023-01-28T02:05:20;2.90;1.00
827;DHT22;395;48.132;11.608;2023-01-28T02:07:49;3.00;1.00
827;DHT22;395;48.132;11.608;2023-01-28T02:10:15;2.90;1.00
827;DHT22;395;48.132;11.608;2023-01-28T02:12:54;2.90;1.00
827;DHT22;395;48.132;11.608;2023-01-28T02:15:23;3.00;1.00
827;DHT22;395;48.132;11.608;2023-01-28T02:17:50;3.00;1.00
827;DHT22;395;48.132;11.608;2023-01-28T02:26:21;3.00;1.10
827;DHT22;395;48.132;11.608;2023-01-28T02:35:05;3.00;1.40
827;DHT22;395;48.132;11.608;2023-01-28T02:37:42;3.00;1.30
827;DHT22;395;48.132;11.608;2023-01-28T02:40:13;3.00;1.40
827;DHT22;395;48.132;11.608;2023-01-28T02:42:40;3.00;1.30
827;DHT22;395;48.132;11.608;2023-01-28T02:45:19;3.00;1.20
827;DHT22;395;48.132;11.608;2023-01-28T02:47:46;3.00;1.10
827;DHT22;395;48.132;11.608;2023-01-28T02:50:34;3.00;1.00
827;DHT22;395;48.132;11.608;2023-01-28T02:53:22;3.00;1.00
827;DHT22;395;48.132;11.608;2023-01-28T02:56:21;3.10;1.00
827;DHT22;395;48.132;11.608;2023-01-28T02:59:06;3.00;1.00
827;DHT22;395;48.132;11.608;2023-01-28T03:02:10;3.00;1.00
827;DHT22;395;48.132;11.608;2023-01-28T03:04:50;3.00;1.00
827;DHT22;395;48.132;11.608;2023-01-28T03:07:20;3.10;1.00
827;DHT22;395;48.132;11.608;2023-01-28T03:09:47;3.00;1.00
827;DHT22;395;48.132;11.608;2023-01-28T03:12:20;3.00;1.00
827;DHT22;395;48.132;11.608;2023-01-28T03:15:19;3.00;1.00
827;DHT22;395;48.132;11.608;2023-01-28T03:18:15;3.00;1.00
827;DHT22;395;48.132;11.608;2023-01-28T03:21:06;3.00;1.00
827;DHT22;395;48.132;11.608;2023-01-28T03:24:46;3.00;1.00
827;DHT22;395;48.132;11.608;2023-01-28T03:33:34;3.00;1.00
827;DHT22;395;48.132;11.608;2023-01-28T03:36:19;3.00;1.00
827;DHT22;395;48.132;11.608;2023-01-28T03:39:04;3.00;1.00
827;DHT22;395;48.132;11.608;2023-01-28T03:41:29;3.00;1.00
827;DHT22;395;48.132;11.608;2023-01-28T03:43:55;3.00;1.00
827;DHT22;395;48.132;11.608;2023-01-28T03:46:21;3.00;1.00
827;DHT22;395;48.132;11.608;2023-01-28T03:48:46;3.00;1.00
827;DHT22;395;48.132;11.608;2023-01-28T03:51:12;3.00;1.00
827;DHT22;395;48.132;11.608;2023-01-28T03:53:38;3.00;1.00
827;DHT22;395;48.132;11.608;2023-01-28T03:56:05;3.00;1.00
827;DHT22;395;48.132;11.608;2023-01-28T03:58:31;3.00;1.00
827;DHT22;395;48.132;11.608;2023-01-28T04:01:20;3.00;1.00
827;DHT22;395;48.132;11.608;2023-01-28T04:03:46;3.00;1.00
827;DHT22;395;48.132;11.608;2023-01-28T04:06:12;3.00;1.00
827;DHT22;395;48.132;11.608;2023-01-28T04:08:37;3.00;1.00
827;DHT22;395;48.132;11.608;2023-01-28T04:11:03;3.00;1.00
827;DHT22;395;48.132;11.608;2023-01-28T04:13:43;3.00;1.00
827;DHT22;395;48.132;11.608;2023-01-28T04:16:14;3.00;1.00
827;DHT22;395;48.132;11.608;2023-01-28T04:18:41;3.00;1.00
827;DHT22;395;48.132;11.608;2023-01-28T04:21:07;3.00;1.00
827;DHT22;395;48.132;11.608;2023-01-28T04:23:32;2.90;1.00
827;DHT22;395;48.132;11.608;2023-01-28T04:25:58;3.00;1.00
827;DHT22;395;48.132;11.608;2023-01-28T04:28:24;3.00;1.00
827;DHT22;395;48.132;11.608;2023-01-28T04:30:51;3.00;1.00
827;DHT22;395;48.132;11.608;2023-01-28T04:33:17;3.00;1.00
827;DHT22;395;48.132;11.608;2023-01-28T04:35:43;3.00;1.00
827;DHT22;395;48.132;11.608;2023-01-28T04:38:08;3.00;1.00
827;DHT22;395;48.132;11.608;2023-01-28T04:40:34;3.00;1.00
827;DHT22;395;48.132;11.608;2023-01-28T04:42:59;3.00;1.00
827;DHT22;395;48.132;11.608;2023-01-28T04:45:25;3.00;1.00
827;DHT22;395;48.132;11.608;2023-01-28T04:47:51;3.00;1.00
827;DHT22;395;48.132;11.608;2023-01-28T04:50:17;3.00;1.00
827;DHT22;395;48.132;11.608;2023-01-28T04:52:43;3.00;1.00
827;DHT22;395;48.132;11.608;2023-01-28T04:55:09;3.00;1.00
827;DHT22;395;48.132;11.608;2023-01-28T04:57:35;3.00;1.00
827;DHT22;395;48.132;11.608;2023-01-28T05:00:01;3.10;1.00
827;DHT22;395;48.132;11.608;2023-01-28T05:02:27;3.00;1.00
827;DHT22;395;48.132;11.608;2023-01-28T05:04:52;3.10;1.00
827;DHT22;395;48.132;11.608;2023-01-28T05:07:18;3.00;1.00
827;DHT22;395;48.132;11.608;2023-01-28T05:09:43;3.10;1.00
827;DHT22;395;48.132;11.608;2023-01-28T05:12:09;3.00;1.00
827;DHT22;395;48.132;11.608;2023-01-28T05:14:35;3.00;1.00
827;DHT22;395;48.132;11.608;2023-01-28T05:17:00;3.00;1.00
827;DHT22;395;48.132;11.608;2023-01-28T05:19:26;3.00;1.00
827;DHT22;395;48.132;11.608;2023-01-28T05:21:51;3.10;1.00
827;DHT22;395;48.132;11.608;2023-01-28T05:24:17;3.00;1.00
827;DHT22;395;48.132;11.608;2023-01-28T05:26:43;3.00;1.00
827;DHT22;395;48.132;11.608;2023-01-28T05:29:08;3.00;1.00
827;DHT22;395;48.132;11.608;2023-01-28T05:31:34;3.00;1.00
827;DHT22;395;48.132;11.608;2023-01-28T05:34:00;3.00;1.00
827;DHT22;395;48.132;11.608;2023-01-28T05:36:25;3.00;1.00
827;DHT22;395;48.132;11.608;2023-01-28T05:38:51;3.00;1.00
827;DHT22;395;48.132;11.608;2023-01-28T05:41:16;3.00;1.00
827;DHT22;395;48.132;11.608;2023-01-28T05:43:42;2.90;1.00
827;DHT22;395;48.132;11.608;2023-01-28T05:46:08;3.00;1.00
827;DHT22;395;48.132;11.608;2023-01-28T05:48:33;3.00;1.00
827;DHT22;395;48.132;11.608;2023-01-28T05:50:59;3.00;1.00
827;DHT22;395;48.132;11.608;2023-01-28T05:53:25;3.00;1.00
827;DHT22;395;48.132;11.608;2023-01-28T05:55:51;3.00;1.00
827;DHT22;395;48.132;11.608;2023-01-28T05:58:19;3.00;1.00
827;DHT22;395;48.132;11.608;2023-01-28T06:00:44;3.00;1.00
827;DHT22;395;48.132;11.608;2023-01-28T06:03:10;3.00;1.00
827;DHT22;395;48.132;11.608;2023-01-28T06:05:37;3.00;1.00
827;DHT22;395;48.132;11.608;2023-01-28T06:08:04;3.00;1.00
827;DHT22;395;48.132;11.608;2023-01-28T06:10:30;3.00;1.00
827;DHT22;395;48.132;11.608;2023-01-28T06:12:55;3.00;1.00
827;DHT22;395;48.132;11.608;2023-01-28T06:15:21;3.00;1.00
827;DHT22;395;48.132;11.608;2023-01-28T06:17:46;3.00;1.00
827;DHT22;395;48.132;11.608;2023-01-28T06:20:12;3.00;1.00
827;DHT22;395;48.132;11.608;2023-01-28T06:22:38;3.00;1.00
827;DHT22;395;48.132;11.608;2023-01-28T06:25:04;3.00;1.00
827;DHT22;395;48.132;11.608;2023-01-28T06:27:30;3.00;1.00
827;DHT22;395;48.132;11.608;2023-01-28T06:29:55;3.00;1.00
827;DHT22;395;48.132;11.608;2023-01-28T06:32:21;2.90;1.00
827;DHT22;395;48.132;11.608;2023-01-28T06:34:47;2.90;1.00
827;DHT22;395;48.132;11.608;2023-01-28T06:37:13;2.90;1.00
827;DHT22;395;48.132;11.608;2023-01-28T06:39:38;2.90;1.00
827;DHT22;395;48.132;11.608;2023-01-28T06:42:04;2.90;1.00
827;DHT22;395;48.132;11.608;2023-01-28T06:44:30;2.90;1.00
827;DHT22;395;48.132;11.608;2023-01-28T06:46:56;2.90;1.00
827;DHT22;395;48.132;11.608;2023-01-28T06:49:21;2.90;1.00
827;DHT22;395;48.132;11.608;2023-01-28T06:51:47;2.90;1.00
827;DHT22;395;48.132;11.608;2023-01-28T06:54:13;2.90;1.00
827;DHT22;395;48.132;11.608;2023-01-28T06:56:39;2.90;1.00
827;DHT22;395;48.132;11.608;2023-01-28T06:59:04;2.90;1.00
827;DHT22;395;48.132;11.608;2023-01-28T07:01:30;2.80;1.00
827;DHT22;395;48.132;11.608;2023-01-28T07:03:56;2.90;1.00
827;DHT22;395;48.132;11.608;2023-01-28T07:06:22;2.90;1.00
827;DHT22;395;48.132;11.608;2023-01-28T07:08:48;2.90;1.00
827;DHT22;395;48.132;11.608;2023-01-28T07:11:14;2.90;1.00
827;DHT22;395;48.132;11.608;2023-01-28T07:13:40;2.90;1.00
827;DHT22;395;48.132;11.608;2023-01-28T07:16:06;2.90;1.00
827;DHT22;395;48.132;11.608;2023-01-28T07:18:32;2.90;1.00
827;DHT22;395;48.132;11.608;2023-01-28T07:20:58;2.90;1.00
827;DHT22;395;48.132;11.608;2023-01-28T07:23:24;2.90;1.00
827;DHT22;395;48.132;11.608;2023-01-28T07:25:49;2.90;1.00
827;DHT22;395;48.132;11.608;2023-01-28T07:28:15;3.00;1.00
827;DHT22;395;48.132;11.608;2023-01-28T07:30:49;3.00;1.00
827;DHT22;395;48.132;11.608;2023-01-28T07:33:15;3.00;1.00
827;DHT22;395;48.132;11.608;2023-01-28T07:35:42;3.00;1.00
827;DHT22;395;48.132;11.608;2023-01-28T07:38:08;2.90;1.00
827;DHT22;395;48.132;11.608;2023-01-28T07:40:34;2.90;1.00
827;DHT22;395;48.132;11.608;2023-01-28T07:42:59;3.00;1.00
827;DHT22;395;48.132;11.608;2023-01-28T07:45:25;2.80;1.00
827;DHT22;395;48.132;11.608;2023-01-28T07:47:53;3.00;1.00
827;DHT22;395;48.132;11.608;2023-01-28T07:50:19;3.00;1.00
827;DHT22;395;48.132;11.608;2023-01-28T07:52:45;3.00;1.00
827;DHT22;395;48.132;11.608;2023-01-28T07:55:10;3.00;1.00
827;DHT22;395;48.132;11.608;2023-01-28T07:57:57;3.00;1.00
827;DHT22;395;48.132;11.608;2023-01-28T08:00:24;3.00;1.00
827;DHT22;395;48.132;11.608;2023-01-28T08:02:58;3.00;1.00
827;DHT22;395;48.132;11.608;2023-01-28T08:05:25;3.00;1.00
827;DHT22;395;48.132;11.608;2023-01-28T08:07:54;3.00;1.00
827;DHT22;395;48.132;11.608;2023-01-28T08:10:20;3.00;1.00
827;DHT22;395;48.132;11.608;2023-01-28T08:12:53;3.00;1.00
827;DHT22;395;48.132;11.608;2023-01-28T08:15:19;3.00;1.00
827;DHT22;395;48.132;11.608;2023-01-28T08:17:45;3.00;1.00
827;DHT22;395;48.132;11.608;2023-01-28T08:20:11;3.00;1.00
827;DHT22;395;48.132;11.608;2023-01-28T08:22:37;3.10;1.00
827;DHT22;395;48.132;11.608;2023-01-28T08:25:02;3.10;1.00
827;DHT22;395;48.132;11.608;2023-01-28T08:27:28;3.10;1.00
827;DHT22;395;48.132;11.608;2023-01-28T08:29:54;3.10;1.00
827;DHT22;395;48.132;11.608;2023-01-28T08:32:20;3.10;1.00
827;DHT22;395;48.132;11.608;2023-01-28T08:34:45;3.10;1.00
827;DHT22;395;48.132;11.608;2023-01-28T08:37:11;3.10;1.00
827;DHT22;395;48.132;11.608;2023-01-28T08:39:37;3.10;1.00
827;DHT22;395;48.132;11.608;2023-01-28T08:42:04;3.10;1.00
827;DHT22;395;48.132;11.608;2023-01-28T08:44:30;3.20;1.00
827;DHT22;395;48.132;11.608;2023-01-28T08:46:56;3.20;1.00
827;DHT22;395;48.132;11.608;2023-01-28T08:49:21;3.20;1.00
827;DHT22;395;48.132;11.608;2023-01-28T08:51:47;3.20;1.00
827;DHT22;395;48.132;11.608;2023-01-28T08:54:13;3.20;1.00
827;DHT22;395;48.132;11.608;2023-01-28T08:56:39;3.20;1.00
827;DHT22;395;48.132;11.608;2023-01-28T08:59:07;3.20;1.00
827;DHT22;395;48.132;11.608;2023-01-28T09:01:33;3.20;1.00
827;DHT22;395;48.132;11.608;2023-01-28T09:03:59;3.20;1.00
827;DHT22;395;48.132;11.608;2023-01-28T09:06:25;3.20;1.00
827;DHT22;395;48.132;11.608;2023-01-28T09:08:50;3.40;1.00
827;DHT22;395;48.132;11.608;2023-01-28T09:11:16;3.30;1.00
827;DHT22;395;48.132;11.608;2023-01-28T09:13:41;3.20;1.00
827;DHT22;395;48.132;11.608;2023-01-28T09:16:07;3.30;1.00
827;DHT22;395;48.132;11.608;2023-01-28T09:18:33;3.30;1.00
827;DHT22;395;48.132;11.608;2023-01-28T09:20:59;3.40;1.00
827;DHT22;395;48.132;11.608;2023-01-28T09:23:28;3.30;1.00
827;DHT22;395;48.132;11.608;2023-01-28T09:25:59;3.40;1.00
827;DHT22;395;48.132;11.608;2023-01-28T09:28:25;3.30;1.00
827;DHT22;395;48.132;11.608;2023-01-28T09:30:50;3.40;1.00
827;DHT22;395;48.132;11.608;2023-01-28T09:33:16;3.40;1.00
827;DHT22;395;48.132;11.608;2023-01-28T09:35:42;3.40;1.00
827;DHT22;395;48.132;11.608;2023-01-28T09:38:07;3.50;1.00
827;DHT22;395;48.132;11.608;2023-01-28T09:40:40;3.40;1.00
827;DHT22;395;48.132;11.608;2023-01-28T09:46:11;3.50;1.00
827;DHT22;395;48.132;11.608;2023-01-28T09:48:44;3.50;1.00
827;DHT22;395;48.132;11.608;2023-01-28T09:51:27;3.50;1.00
827;DHT22;395;48.132;11.608;2023-01-28T09:53:55;3.60;1.00
827;DHT22;395;48.132;11.608;2023-01-28T09:56:30;3.70;1.00
827;DHT22;395;48.132;11.608;2023-01-28T09:58:58;3.60;1.00
827;DHT22;395;48.132;11.608;2023-01-28T10:01:45;3.70;1.00
827;DHT22;395;48.132;11.608;2023-01-28T10:12:20;3.70;1.00
827;DHT22;395;48.132;11.608;2023-01-28T10:17:18;3.80;1.00
827;DHT22;395;48.132;11.608;2023-01-28T10:19:50;3.80;1.00
827;DHT22;395;48.132;11.608;2023-01-28T10:22:28;3.80;1.00
827;DHT22;395;48.132;11.608;2023-01-28T10:24:57;3.80;1.00
827;DHT22;395;48.132;11.608;2023-01-28T10:27:28;3.80;1.00
827;DHT22;395;48.132;11.608;2023-01-28T10:29:57;3.90;1.00
827;DHT22;395;48.132;11.608;2023-01-28T10:32:30;3.90;1.00
827;DHT22;395;48.132;11.608;2023-01-28T10:34:56;3.90;1.00
827;DHT22;395;48.132;11.608;2023-01-28T10:37:34;4.00;1.00
827;DHT22;395;48.132;11.608;2023-01-28T10:40:01;4.00;1.00
827;DHT22;395;48.132;11.608;2023-01-28T10:42:30;4.00;1.00
827;DHT22;395;48.132;11.608;2023-01-28T10:45:02;4.10;1.00
827;DHT22;395;48.132;11.608;2023-01-28T10:47:53;4.10;1.00
827;DHT22;395;48.132;11.608;2023-01-28T10:50:25;4.10;1.00
827;DHT22;395;48.132;11.608;2023-01-28T10:52:53;4.20;1.00
827;DHT22;395;48.132;11.608;2023-01-28T10:55:18;4.20;1.00
827;DHT22;395;48.132;11.608;2023-01-28T10:57:44;4.20;1.00
827;DHT22;395;48.132;11.608;2023-01-28T11:00:33;4.20;1.00
827;DHT22;395;48.132;11.608;2023-01-28T11:02:59;4.30;1.00
827;DHT22;395;48.132;11.608;2023-01-28T11:05:27;4.30;1.00
827;DHT22;395;48.132;11.608;2023-01-28T11:08:14;4.30;1.00
827;DHT22;395;48.132;11.608;2023-01-28T11:10:40;4.30;1.00
827;DHT22;395;48.132;11.608;2023-01-28T11:15:49;4.30;1.00
827;DHT22;395;48.132;11.608;2023-01-28T11:18:19;4.30;1.00
827;DHT22;395;48.132;11.608;2023-01-28T11:20:56;4.30;1.00
827;DHT22;395;48.132;11.608;2023-01-28T11:23:28;4.30;1.00
827;DHT22;395;48.132;11.608;2023-01-28T11:26:18;4.40;1.00
827;DHT22;395;48.132;11.608;2023-01-28T11:28:44;4.30;1.00
827;DHT22;395;48.132;11.608;2023-01-28T11:31:13;4.30;1.00
827;DHT22;395;48.132;11.608;2023-01-28T11:33:56;4.30;1.00
827;DHT22;395;48.132;11.608;2023-01-28T11:36:25;4.40;1.00
827;DHT22;395;48.132;11.608;2023-01-28T11:38:52;4.40;1.00
827;DHT22;395;48.132;11.608;2023-01-28T11:41:35;4.20;1.00
827;DHT22;395;48.132;11.608;2023-01-28T11:44:14;4.30;1.00
827;DHT22;395;48.132;11.608;2023-01-28T12:01:09;4.40;1.00
827;DHT22;395;48.132;11.608;2023-01-28T12:06:18;4.40;1.00
827;DHT22;395;48.132;11.608;2023-01-28T12:09:09;4.50;1.00
827;DHT22;395;48.132;11.608;2023-01-28T12:12:03;4.50;1.00
827;DHT22;395;48.132;11.608;2023-01-28T12:18:11;4.50;1.00
827;DHT22;395;48.132;11.608;2023-01-28T12:20:57;4.50;1.00
827;DHT22;395;48.132;11.608;2023-01-28T12:26:25;4.50;1.00
827;DHT22;395;48.132;11.608;2023-01-28T12:31:58;4.50;1.00
827;DHT22;395;48.132;11.608;2023-01-28T12:37:40;4.50;1.00
827;DHT22;395;48.132;11.608;2023-01-28T12:40:26;4.50;1.00
827;DHT22;395;48.132;11.608;2023-01-28T12:46:01;4.60;1.00
827;DHT22;395;48.132;11.608;2023-01-28T12:48:33;4.50;1.00
827;DHT22;395;48.132;11.608;2023-01-28T12:51:22;4.60;1.00
827;DHT22;395;48.132;11.608;2023-01-28T12:53:59;4.60;1.00
827;DHT22;395;48.132;11.608;2023-01-28T12:56:32;4.60;1.00
827;DHT22;395;48.132;11.608;2023-01-28T12:59:03;4.60;1.00
827;DHT22;395;48.132;11.608;2023-01-28T13:04:31;4.60;1.00
827;DHT22;395;48.132;11.608;2023-01-28T13:07:09;4.60;1.00
827;DHT22;395;48.132;11.608;2023-01-28T13:09:48;4.60;1.00
827;DHT22;395;48.132;11.608;2023-01-28T13:12:17;4.60;1.00
827;DHT22;395;48.132;11.608;2023-01-28T13:14:44;4.60;1.00
827;DHT22;395;48.132;11.608;2023-01-28T13:17:25;4.60;1.00
827;DHT22;395;48.132;11.608;2023-01-28T13:19:51;4.60;1.00
827;DHT22;395;48.132;11.608;2023-01-28T13:22:32;4.60;1.00
827;DHT22;395;48.132;11.608;2023-01-28T13:25:35;4.50;1.00
827;DHT22;395;48.132;11.608;2023-01-28T13:28:03;4.50;1.00
827;DHT22;395;48.132;11.608;2023-01-28T13:30:34;4.50;1.00
827;DHT22;395;48.132;11.608;2023-01-28T13:33:03;4.50;1.00
827;DHT22;395;48.132;11.608;2023-01-28T13:35:36;4.50;1.00
827;DHT22;395;48.132;11.608;2023-01-28T13:38:18;4.50;1.00
827;DHT22;395;48.132;11.608;2023-01-28T13:40:59;4.50;1.00
827;DHT22;395;48.132;11.608;2023-01-28T13:48:49;4.40;1.00
827;DHT22;395;48.132;11.608;2023-01-28T13:51:23;4.50;1.00
827;DHT22;395;48.132;11.608;2023-01-28T13:53:55;4.40;1.00
827;DHT22;395;48.132;11.608;2023-01-28T13:56:24;4.40;1.00
827;DHT22;395;48.132;11.608;2023-01-28T13:59:09;4.40;1.00
827;DHT22;395;48.132;11.608;2023-01-28T14:07:05;4.40;1.00
827;DHT22;395;48.132;11.608;2023-01-28T14:12:50;4.40;1.00
827;DHT22;395;48.132;11.608;2023-01-28T14:18:32;4.30;1.00
827;DHT22;395;48.132;11.608;2023-01-28T14:21:02;4.30;1.00
827;DHT22;395;48.132;11.608;2023-01-28T14:23:34;4.30;1.00
827;DHT22;395;48.132;11.608;2023-01-28T14:26:15;4.30;1.00
827;DHT22;395;48.132;11.608;2023-01-28T14:31:36;4.30;1.00
827;DHT22;395;48.132;11.608;2023-01-28T14:34:12;4.30;1.00
827;DHT22;395;48.132;11.608;2023-01-28T14:36:43;4.30;1.00
827;DHT22;395;48.132;11.608;2023-01-28T14:39:25;4.30;1.00
827;DHT22;395;48.132;11.608;2023-01-28T14:41:53;4.30;1.00
827;DHT22;395;48.132;11.608;2023-01-28T14:44:26;4.30;1.00
827;DHT22;395;48.132;11.608;2023-01-28T14:57:54;4.20;1.00
827;DHT22;395;48.132;11.608;2023-01-28T15:00:30;4.20;1.00
827;DHT22;395;48.132;11.608;2023-01-28T15:02:56;4.20;1.00
827;DHT22;395;48.132;11.608;2023-01-28T15:05:25;4.20;1.00
827;DHT22;395;48.132;11.608;2023-01-28T15:07:51;4.20;1.00
827;DHT22;395;48.132;11.608;2023-01-28T15:10:34;4.20;1.00
827;DHT22;395;48.132;11.608;2023-01-28T15:13:07;4.20;1.00
827;DHT22;395;48.132;11.608;2023-01-28T15:15:36;4.20;1.00
827;DHT22;395;48.132;11.608;2023-01-28T15:18:26;4.20;1.00
827;DHT22;395;48.132;11.608;2023-01-28T15:20:54;4.20;1.00
827;DHT22;395;48.132;11.608;2023-01-28T15:23:34;4.20;1.00
827;DHT22;395;48.132;11.608;2023-01-28T15:26:24;4.20;1.00
827;DHT22;395;48.132;11.608;2023-01-28T15:28:51;4.20;1.00
827;DHT22;395;48.132;11.608;2023-01-28T15:31:33;4.10;1.00
827;DHT22;395;48.132;11.608;2023-01-28T15:34:11;4.20;1.00
827;DHT22;395;48.132;11.608;2023-01-28T15:36:37;4.20;1.00
827;DHT22;395;48.132;11.608;2023-01-28T15:39:03;4.20;1.00
827;DHT22;395;48.132;11.608;2023-01-28T15:41:38;4.20;1.00
827;DHT22;395;48.132;11.608;2023-01-28T15:44:05;4.20;1.00
827;DHT22;395;48.132;11.608;2023-01-28T15:46:31;4.20;1.00
827;DHT22;395;48.132;11.608;2023-01-28T15:49:02;4.20;1.00
827;DHT22;395;48.132;11.608;2023-01-28T15:51:32;4.20;1.00
827;DHT22;395;48.132;11.608;2023-01-28T15:54:06;4.20;1.00
827;DHT22;395;48.132;11.608;2023-01-28T15:56:33;4.20;1.00
827;DHT22;395;48.132;11.608;2023-01-28T15:59:17;4.20;1.00
827;DHT22;395;48.132;11.608;2023-01-28T16:01:43;4.20;1.00
827;DHT22;395;48.132;11.608;2023-01-28T16:04:27;4.20;1.00
827;DHT22;395;48.132;11.608;2023-01-28T16:06:55;4.20;1.00
827;DHT22;395;48.132;11.608;2023-01-28T16:09:26;4.20;1.00
827;DHT22;395;48.132;11.608;2023-01-28T16:11:52;4.20;1.00
827;DHT22;395;48.132;11.608;2023-01-28T16:14:27;4.10;1.00
827;DHT22;395;48.132;11.608;2023-01-28T16:16:55;4.10;1.00
827;DHT22;395;48.132;11.608;2023-01-28T16:19:42;4.10;1.00
827;DHT22;395;48.132;11.608;2023-01-28T16:22:26;4.10;1.00
827;DHT22;395;48.132;11.608;2023-01-28T16:24:53;4.20;1.00
827;DHT22;395;48.132;11.608;2023-01-28T16:27:24;4.10;1.00
827;DHT22;395;48.132;11.608;2023-01-28T16:29:50;4.10;1.00
827;DHT22;395;48.132;11.608;2023-01-28T16:32:34;4.10;1.00
827;DHT22;395;48.132;11.608;2023-01-28T16:35:00;4.00;1.00
827;DHT22;395;48.132;11.608;2023-01-28T16:37:26;4.00;1.00
827;DHT22;395;48.132;11.608;2023-01-28T16:39:52;3.90;1.00
827;DHT22;395;48.132;11.608;2023-01-28T16:42:17;3.80;1.00
827;DHT22;395;48.132;11.608;2023-01-28T16:44:43;3.80;1.00
827;DHT22;395;48.132;11.608;2023-01-28T16:47:09;3.80;1.00
827;DHT22;395;48.132;11.608;2023-01-28T16:49:36;3.80;1.00
827;DHT22;395;48.132;11.608;2023-01-28T16:52:02;3.80;1.00
827;DHT22;395;48.132;11.608;2023-01-28T16:54:28;3.80;1.00
827;DHT22;395;48.132;11.608;2023-01-28T16:56:55;3.80;1.00
827;DHT22;395;48.132;11.608;2023-01-28T16:59:21;3.80;1.00
827;DHT22;395;48.132;11.608;2023-01-28T17:01:47;3.80;1.00
827;DHT22;395;48.132;11.608;2023-01-28T17:04:13;3.80;1.00
827;DHT22;395;48.132;11.608;2023-01-28T17:06:43;3.80;1.00
827;DHT22;395;48.132;11.608;2023-01-28T17:09:11;3.80;1.00
827;DHT22;395;48.132;11.608;2023-01-28T17:11:37;3.80;1.00
827;DHT22;395;48.132;11.608;2023-01-28T17:14:07;3.80;1.00
827;DHT22;395;48.132;11.608;2023-01-28T17:16:33;3.80;1.00
827;DHT22;395;48.132;11.608;2023-01-28T17:18:58;3.80;1.00
827;DHT22;395;48.132;11.608;2023-01-28T17:21:24;3.80;1.00
827;DHT22;395;48.132;11.608;2023-01-28T17:23:50;3.80;1.00
827;DHT22;395;48.132;11.608;2023-01-28T17:26:16;3.90;1.00
827;DHT22;395;48.132;11.608;2023-01-28T17:28:41;3.80;1.00
827;DHT22;395;48.132;11.608;2023-01-28T17:31:09;3.80;1.00
827;DHT22;395;48.132;11.608;2023-01-28T17:33:39;3.90;1.00
827;DHT22;395;48.132;11.608;2023-01-28T17:36:05;3.80;1.00
827;DHT22;395;48.132;11.608;2023-01-28T17:38:31;3.90;1.00
827;DHT22;395;48.132;11.608;2023-01-28T17:41:01;3.80;1.00
827;DHT22;395;48.132;11.608;2023-01-28T17:43:27;3.80;1.00
827;DHT22;395;48.132;11.608;2023-01-28T17:45:53;3.80;1.00
827;DHT22;395;48.132;11.608;2023-01-28T17:48:19;3.80;1.00
827;DHT22;395;48.132;11.608;2023-01-28T17:50:44;3.80;1.00
827;DHT22;395;48.132;11.608;2023-01-28T17:53:11;3.90;1.00
827;DHT22;395;48.132;11.608;2023-01-28T17:55:37;3.80;1.00
827;DHT22;395;48.132;11.608;2023-01-28T17:58:03;3.80;1.00
827;DHT22;395;48.132;11.608;2023-01-28T18:00:29;3.90;1.00
827;DHT22;395;48.132;11.608;2023-01-28T18:02:55;3.90;1.00
827;DHT22;395;48.132;11.608;2023-01-28T18:05:21;3.90;1.00
827;DHT22;395;48.132;11.608;2023-01-28T18:07:47;3.90;1.00
827;DHT22;395;48.132;11.608;2023-01-28T18:10:16;3.90;1.00
827;DHT22;395;48.132;11.608;2023-01-28T18:12:42;3.90;1.00
827;DHT22;395;48.132;11.608;2023-01-28T18:15:09;3.80;1.00
827;DHT22;395;48.132;11.608;2023-01-28T18:17:35;3.80;1.00
827;DHT22;395;48.132;11.608;2023-01-28T18:20:01;3.80;1.00
827;DHT22;395;48.132;11.608;2023-01-28T18:22:28;3.80;1.00
827;DHT22;395;48.132;11.608;2023-01-28T18:24:54;3.80;1.00
827;DHT22;395;48.132;11.608;2023-01-28T18:27:21;3.90;1.00
827;DHT22;395;48.132;11.608;2023-01-28T18:29:48;3.90;1.00
827;DHT22;395;48.132;11.608;2023-01-28T18:32:14;3.80;1.00
827;DHT22;395;48.132;11.608;2023-01-28T18:34:40;3.80;1.00
827;DHT22;395;48.132;11.608;2023-01-28T18:37:08;3.90;1.00
827;DHT22;395;48.132;11.608;2023-01-28T18:39:34;3.90;1.00
827;DHT22;395;48.132;11.608;2023-01-28T18:42:00;3.80;1.00
827;DHT22;395;48.132;11.608;2023-01-28T18:44:28;3.90;1.00
827;DHT22;395;48.132;11.608;2023-01-28T18:46:55;3.80;1.00
827;DHT22;395;48.132;11.608;2023-01-28T18:49:21;3.80;1.00
827;DHT22;395;48.132;11.608;2023-01-28T18:51:47;3.80;1.00
827;DHT22;395;48.132;11.608;2023-01-28T18:54:14;3.80;1.00
827;DHT22;395;48.132;11.608;2023-01-28T18:56:42;3.80;1.00